Time;durP1;ratioP1;P1;durP2;ratioP2;P2;SDS_P1;SDS_P2;PMS_P1;PMS_P2;Temp;Humidity;BMP_temperature;BMP_pressure;BME280_temperature;BME280_humidity;BME280_pressure;Samples;Min_cycle;Max_cycle;Signal;HPM_P1;HPM_P2
2022/03/09 00:00:21;;;;;;;;;62.25;49.25;;;;;9.72;42.27;101427.47;5038018;28;45320;-69
2022/03/09 00:02:50;;;;;;;;;59.00;46.50;;;;;9.75;42.19;101421.06;5045414;28;45473;-68
2022/03/09 00:05:15;;;;;;;;;63.00;50.25;;;;;9.84;41.88;101438.94;5045387;28;45382;-67
2022/03/09 00:07:40;;;;;;;;;65.75;51.50;;;;;9.69;42.46;101411.78;5039792;28;45693;-67
2022/03/09 00:10:07;;;;;;;;;59.00;48.75;;;;;9.34;42.04;101361.47;5041836;28;45721;-67
2022/03/09 00:12:33;;;;;;;;;61.75;48.75;;;;;9.79;42.12;101438.44;5037958;28;45470;-68
2022/03/09 00:14:58;;;;;;;;;66.00;49.00;;;;;9.78;42.54;101431.44;5056953;28;45230;-69
2022/03/09 00:17:24;;;;;;;;;62.25;48.00;;;;;9.70;42.07;101425.91;5048497;28;46068;-68
2022/03/09 00:19:49;;;;;;;;;61.75;49.25;;;;;9.72;42.31;101424.81;5046846;28;45247;-68
2022/03/09 00:22:15;;;;;;;;;64.75;49.50;;;;;9.84;42.37;101436.28;5048256;28;45494;-69
2022/03/09 00:24:41;;;;;;;;;60.25;48.75;;;;;9.86;42.25;101444.97;5043275;28;45540;-67
2022/03/09 00:27:07;;;;;;;;;61.25;49.25;;;;;9.73;41.98;101428.31;5044746;28;45412;-67
2022/03/09 00:29:33;;;;;;;;;61.25;48.50;;;;;9.74;42.26;101419.38;5040462;28;45478;-67
2022/03/09 00:31:58;;;;;;;;;65.75;51.00;;;;;9.73;42.51;101431.81;5056792;28;45466;-67
2022/03/09 00:34:24;;;;;;;;;61.00;49.50;;;;;9.73;42.77;101444.25;5045152;28;45449;-67
2022/03/09 00:36:49;;;;;;;;;69.00;51.00;;;;;9.80;42.38;101463.19;5044734;28;45561;-68
2022/03/09 00:39:14;;;;;;;;;64.75;49.75;;;;;9.53;42.52;101415.75;5043638;28;45518;-66
2022/03/09 00:41:40;;;;;;;;;65.25;51.00;;;;;9.77;42.65;101456.31;5044446;28;45228;-68
2022/03/09 00:44:20;;;;;;;;;64.75;50.50;;;;;9.60;42.59;101432.88;5042160;28;45637;-68
2022/03/09 00:46:45;;;;;;;;;64.75;52.25;;;;;9.65;42.81;101441.34;5035691;28;46694;-67
2022/03/09 00:49:10;;;;;;;;;65.50;49.25;;;;;9.65;43.13;101449.31;5050707;28;45502;-68
2022/03/09 00:51:36;;;;;;;;;66.50;51.25;;;;;9.44;43.14;101415.53;5044891;28;45441;-67
2022/03/09 00:54:01;;;;;;;;;66.25;51.25;;;;;9.59;42.97;101449.78;5043785;28;45272;-69
2022/03/09 00:56:30;;;;;;;;;67.00;51.00;;;;;9.70;43.47;101466.56;5071169;28;46563;-67
2022/03/09 00:59:01;;;;;;;;;67.00;52.75;;;;;9.64;43.13;101466.22;5041030;28;45375;-67
2022/03/09 01:01:26;;;;;;;;;67.75;52.00;;;;;9.16;43.22;101392.09;5035049;28;45845;-67
2022/03/09 01:03:52;;;;;;;;;66.00;50.25;;;;;9.60;43.38;101470.06;5051523;28;45503;-66
2022/03/09 01:06:17;;;;;;;;;72.00;54.75;;;;;9.64;43.39;101477.69;5034422;28;47962;-67
2022/03/09 01:08:43;;;;;;;;;67.25;53.00;;;;;9.44;43.05;101452.69;5044306;28;45400;-67
2022/03/09 01:11:09;;;;;;;;;74.00;54.25;;;;;9.42;43.77;101457.28;5050872;28;45492;-67
2022/03/09 01:13:35;;;;;;;;;65.50;51.25;;;;;9.56;43.63;101468.59;5038933;28;45478;-68
2022/03/09 01:16:04;;;;;;;;;70.25;53.25;;;;;9.49;43.52;101462.09;5043952;28;46008;-66
2022/03/09 01:18:29;;;;;;;;;68.25;50.75;;;;;9.48;43.42;101466.56;5043109;28;46862;-66
2022/03/09 01:20:55;;;;;;;;;70.75;53.75;;;;;9.42;43.50;101462.59;5053840;28;45284;-69
2022/03/09 01:23:20;;;;;;;;;64.50;52.00;;;;;9.47;43.50;101469.34;5046377;28;45571;-67
2022/03/09 01:25:45;;;;;;;;;67.25;49.75;;;;;9.54;43.61;101478.50;5044578;28;47541;-67
2022/03/09 01:28:11;;;;;;;;;70.75;54.75;;;;;9.46;43.82;101473.81;5043740;28;45300;-68
2022/03/09 01:30:36;;;;;;;;;67.75;52.00;;;;;9.47;43.75;101469.34;5042669;28;45510;-69
2022/03/09 01:33:02;;;;;;;;;65.50;52.25;;;;;8.99;43.61;101393.41;5052086;28;45496;-67
2022/03/09 01:35:27;;;;;;;;;69.50;52.00;;;;;9.47;44.15;101472.00;5029279;28;47537;-68
2022/03/09 01:37:53;;;;;;;;;66.50;52.00;;;;;9.41;44.19;101474.16;5050036;28;45293;-69
2022/03/09 01:40:18;;;;;;;;;66.75;51.50;;;;;9.49;44.07;101478.88;5047228;28;45422;-68
2022/03/09 01:42:44;;;;;;;;;72.25;53.75;;;;;9.09;44.10;101404.16;5048322;28;45534;-67
2022/03/09 01:45:12;;;;;;;;;66.50;51.00;;;;;9.53;44.51;101484.78;5044175;28;45632;-67
2022/03/09 01:47:37;;;;;;;;;70.00;52.00;;;;;9.46;44.37;101455.22;5049714;28;45296;-68
2022/03/09 01:50:05;;;;;;;;;65.50;50.25;;;;;9.57;44.11;101472.94;5054748;28;45232;-67
2022/03/09 01:52:31;;;;;;;;;67.00;53.00;;;;;9.59;44.49;101468.38;5047521;28;45295;-67
2022/03/09 01:54:57;;;;;;;;;66.25;50.50;;;;;9.47;44.59;101442.78;5046912;28;46100;-67
2022/03/09 01:57:23;;;;;;;;;70.00;50.75;;;;;9.57;45.03;101472.94;5054550;28;45478;-67
2022/03/09 01:59:49;;;;;;;;;66.50;52.00;;;;;9.33;45.00;101435.91;5050007;28;45589;-67
2022/03/09 02:02:16;;;;;;;;;63.50;51.00;;;;;9.54;45.32;101459.91;5042593;28;45438;-67
2022/03/09 02:04:43;;;;;;;;;66.00;50.25;;;;;9.53;45.38;101460.88;5045450;28;48551;-68
2022/03/09 02:07:09;;;;;;;;;64.75;52.50;;;;;9.38;45.70;101433.72;5047113;28;45252;-66
2022/03/09 02:09:41;;;;;;;;;61.50;50.00;;;;;9.60;45.79;101470.91;5048731;28;45153;-67
2022/03/09 02:12:11;;;;;;;;;60.50;47.25;;;;;9.61;46.34;101466.44;5043660;28;45274;-68
2022/03/09 02:14:45;;;;;;;;;65.75;49.00;;;;;9.01;46.67;101362.31;5045402;28;47378;-68
2022/03/09 02:17:13;;;;;;;;;55.50;46.50;;;;;9.56;47.04;101452.69;5046299;28;45578;-68
2022/03/09 02:19:40;;;;;;;;;60.00;47.25;;;;;9.43;47.57;101434.22;5050113;28;45374;-68
2022/03/09 02:22:30;;;;;;;;;60.75;47.25;;;;;8.29;48.22;101241.56;5050637;28;45421;-69
2022/03/09 02:24:56;;;;;;;;;57.00;46.00;;;;;9.45;48.97;101446.41;5050844;28;45675;-68
2022/03/09 02:27:21;;;;;;;;;61.50;49.75;;;;;9.45;48.15;101450.88;5040340;28;45699;-75
2022/03/09 02:29:51;;;;;;;;;58.75;47.25;;;;;9.29;48.58;101416.72;5050376;28;45340;-68
2022/03/09 02:32:17;;;;;;;;;59.25;46.50;;;;;9.14;48.63;101399.34;5058032;28;45282;-65
2022/03/09 02:34:43;;;;;;;;;59.00;45.75;;;;;9.60;48.17;101464.75;5049683;28;45231;-67
2022/03/09 02:37:09;;;;;;;;;63.50;48.50;;;;;9.42;48.40;101446.66;5052777;28;45292;-66
2022/03/09 02:39:35;;;;;;;;;58.50;46.25;;;;;9.52;48.25;101456.53;5047969;28;45270;-67
2022/03/09 02:42:01;;;;;;;;;60.50;47.00;;;;;9.13;48.00;101387.88;5045975;28;45476;-68
2022/03/09 02:44:26;;;;;;;;;55.25;45.75;;;;;9.47;47.96;101448.09;5046400;28;46110;-65
2022/03/09 02:46:52;;;;;;;;;65.00;48.00;;;;;9.59;48.17;101463.06;5047940;28;45363;-65
2022/03/09 02:49:17;;;;;;;;;43.25;29.75;;;;;9.56;48.12;101463.31;5051946;28;45539;-67
2022/03/09 02:51:42;;;;;;;;;61.25;47.25;;;;;9.44;48.46;101443.88;5037940;28;45566;-68
2022/03/09 02:54:08;;;;;;;;;57.75;46.50;;;;;9.54;48.22;101459.91;5049908;28;45408;-67
2022/03/09 02:56:33;;;;;;;;;63.25;48.25;;;;;9.51;48.24;101449.53;5049374;28;45504;-67
2022/03/09 02:58:59;;;;;;;;;59.75;47.75;;;;;9.52;48.48;101459.19;5039105;28;45547;-66
2022/03/09 03:01:24;;;;;;;;;54.25;44.75;;;;;9.49;48.51;101462.09;5043029;28;45565;-67
2022/03/09 03:03:49;;;;;;;;;58.75;46.00;;;;;9.04;48.60;101398.38;5049161;28;46658;-67
2022/03/09 03:06:15;;;;;;;;;58.25;46.25;;;;;9.39;48.99;101459.28;5045681;28;45569;-66
2022/03/09 03:08:40;;;;;;;;;54.25;44.75;;;;;9.35;49.19;101453.38;5045264;28;45482;-67
2022/03/09 03:11:10;;;;;;;;;52.00;42.75;;;;;9.51;50.01;101492.03;5044879;28;45653;-67
2022/03/09 03:13:38;;;;;;;;;52.25;43.00;;;;;9.07;49.95;101414.03;5052209;28;45670;-67
2022/03/09 03:16:04;;;;;;;;;54.00;43.75;;;;;9.55;50.26;101488.16;5048461;28;45565;-66
2022/03/09 03:18:30;;;;;;;;;55.50;43.75;;;;;9.50;50.33;101482.38;5051004;28;45347;-69
2022/03/09 03:20:55;;;;;;;;;53.25;39.00;;;;;9.33;50.71;101457.97;5045545;28;45406;-67
2022/03/09 03:23:25;;;;;;;;;50.25;41.00;;;;;9.50;50.59;101479.72;5036637;28;47287;-66
2022/03/09 03:25:52;;;;;;;;;53.00;44.00;;;;;9.53;50.93;101488.28;5045467;28;45287;-67
2022/03/09 03:28:18;;;;;;;;;53.25;41.75;;;;;9.48;51.16;101471.03;5045626;28;45273;-67
2022/03/09 03:30:44;;;;;;;;;46.50;37.25;;;;;9.46;51.87;101468.50;5046277;28;45493;-69
2022/03/09 03:33:10;;;;;;;;;48.50;40.75;;;;;8.37;51.92;101284.22;5036505;28;46737;-67
2022/03/09 03:35:35;;;;;;;;;51.50;38.75;;;;;9.33;52.45;101457.13;5044544;28;45525;-66
2022/03/09 03:38:00;;;;;;;;;48.50;38.75;;;;;9.46;52.99;101473.81;5046295;28;45370;-68
2022/03/09 03:40:26;;;;;;;;;45.50;39.50;;;;;8.86;52.81;101373.25;5045903;28;45384;-69
2022/03/09 03:42:51;;;;;;;;;46.25;38.25;;;;;9.38;53.14;101461.09;5044236;28;47863;-67
2022/03/09 03:45:17;;;;;;;;;51.00;41.00;;;;;9.37;52.63;101456.75;5037924;28;45746;-69
2022/03/09 03:47:42;;;;;;;;;50.50;40.25;;;;;9.29;52.50;101445.91;5042958;28;45251;-66
2022/03/09 03:50:08;;;;;;;;;52.75;41.50;;;;;9.35;52.04;101455.19;5041074;28;45279;-66
2022/03/09 03:52:33;;;;;;;;;54.25;43.75;;;;;9.35;52.63;101453.38;5048750;28;46690;-67
2022/03/09 03:54:59;;;;;;;;;48.75;39.75;;;;;9.48;53.11;101476.34;5048690;28;45409;-68
2022/03/09 03:57:24;;;;;;;;;59.50;47.75;;;;;8.83;52.49;101375.19;5038333;28;45691;-67
2022/03/09 03:59:49;;;;;;;;;58.25;46.75;;;;;9.28;51.86;101460.16;5045989;28;45485;-67
2022/03/09 04:02:15;;;;;;;;;67.50;50.25;;;;;9.22;51.34;101463.28;5032544;28;46662;-68
2022/03/09 04:04:40;;;;;;;;;62.25;50.00;;;;;8.76;51.35;101399.59;5041184;28;45489;-68
2022/03/09 04:07:06;;;;;;;;;64.75;51.25;;;;;9.21;50.93;101482.81;5048819;28;45416;-67
2022/03/09 04:09:31;;;;;;;;;67.75;51.75;;;;;9.13;50.88;101483.38;5038338;28;45505;-67
2022/03/09 04:11:56;;;;;;;;;66.00;49.50;;;;;9.12;51.09;101487.00;5042822;28;46013;-68
2022/03/09 04:14:22;;;;;;;;;67.00;53.25;;;;;9.04;51.23;101477.94;5062803;28;46008;-67
2022/03/09 04:16:50;;;;;;;;;66.75;52.75;;;;;8.96;51.43;101475.00;5041384;28;45471;-67
2022/03/09 04:19:16;;;;;;;;;67.00;51.50;;;;;8.71;50.68;101460.94;5056553;28;45241;-67
2022/03/09 04:21:41;;;;;;;;;72.25;56.00;;;;;8.76;50.85;101497.69;5047763;28;46426;-67
2022/03/09 04:24:07;;;;;;;;;71.50;55.25;;;;;8.46;50.45;101471.66;5056703;28;45293;-68
2022/03/09 04:26:32;;;;;;;;;71.00;53.75;;;;;8.37;50.84;101459.06;5040152;28;45282;-67
2022/03/09 04:28:59;;;;;;;;;71.50;56.75;;;;;8.45;50.99;101477.94;5043895;28;45530;-66
2022/03/09 04:31:25;;;;;;;;;72.25;56.25;;;;;8.46;50.90;101487.56;5043139;28;48451;-67
2022/03/09 04:33:50;;;;;;;;;73.50;57.25;;;;;8.48;51.26;101491.78;5044042;28;45213;-69
2022/03/09 04:36:16;;;;;;;;;70.50;55.00;;;;;8.46;51.02;101485.75;5036584;28;45284;-68
2022/03/09 04:38:41;;;;;;;;;65.75;51.50;;;;;8.36;51.49;101476.78;5045937;28;45521;-67
2022/03/09 04:41:07;;;;;;;;;65.50;52.00;;;;;8.38;51.76;101493.41;5049766;28;47664;-68
2022/03/09 04:43:32;;;;;;;;;69.75;55.00;;;;;8.22;51.36;101461.88;5044859;28;45523;-68
2022/03/09 04:45:58;;;;;;;;;71.50;55.25;;;;;8.34;51.25;101489.28;5044849;28;45262;-66
2022/03/09 04:48:23;;;;;;;;;69.75;55.25;;;;;8.37;51.78;101496.16;5037079;28;45725;-67
2022/03/09 04:50:49;;;;;;;;;69.50;55.50;;;;;8.33;51.90;101495.53;5044489;28;46628;-67
2022/03/09 04:53:14;;;;;;;;;67.75;52.00;;;;;7.84;51.65;101410.84;5049744;28;45454;-69
2022/03/09 04:55:39;;;;;;;;;67.75;53.25;;;;;8.18;52.75;101494.81;5051531;28;45469;-68
2022/03/09 04:58:05;;;;;;;;;63.75;49.75;;;;;8.19;52.74;101501.81;5044112;28;45353;-67
2022/03/09 05:00:30;;;;;;;;;66.00;52.50;;;;;8.18;52.12;101505.41;5042101;28;48302;-67
2022/03/09 05:02:55;;;;;;;;;66.75;50.75;;;;;7.86;52.63;101468.00;5042924;28;45435;-66
2022/03/09 05:05:21;;;;;;;;;57.25;46.25;;;;;8.09;52.68;101516.69;5044562;28;45319;-67
2022/03/09 05:07:46;;;;;;;;;67.25;51.50;;;;;8.09;52.99;101521.97;5042959;28;45675;-66
2022/03/09 05:10:12;;;;;;;;;62.75;49.75;;;;;7.96;53.27;101499.97;5042744;28;47115;-68
2022/03/09 05:12:38;;;;;;;;;67.75;53.25;;;;;7.93;53.59;101513.41;5044239;28;45225;-66
2022/03/09 05:15:04;;;;;;;;;65.25;52.25;;;;;7.49;53.32;101440.63;5042752;28;45264;-67
2022/03/09 05:17:30;;;;;;;;;68.75;51.75;;;;;7.88;53.97;101508.44;5041975;28;45258;-67
2022/03/09 05:19:56;;;;;;;;;67.00;50.75;;;;;7.65;54.24;101489.84;5046437;28;47343;-68
2022/03/09 05:22:21;;;;;;;;;62.50;50.75;;;;;7.73;54.59;101529.84;5040729;28;45283;-66
2022/03/09 05:24:46;;;;;;;;;64.00;50.50;;;;;7.48;54.83;101505.09;5043855;28;45430;-67
2022/03/09 05:27:12;;;;;;;;;63.75;50.50;;;;;7.17;54.88;101469.28;5044470;28;45287;-68
2022/03/09 05:29:38;;;;;;;;;61.00;48.25;;;;;7.43;55.51;101522.22;5051290;28;45521;-67
2022/03/09 05:32:05;;;;;;;;;62.25;50.50;;;;;7.49;55.56;101541.16;5050628;28;45474;-68
2022/03/09 05:34:30;;;;;;;;;60.00;49.00;;;;;7.55;55.43;101534.59;5034607;28;45339;-67
2022/03/09 05:36:56;;;;;;;;;64.00;49.75;;;;;7.52;55.02;101522.44;5035474;28;45270;-67
2022/03/09 05:39:21;;;;;;;;;64.75;49.75;;;;;7.40;55.54;101510.03;5050640;28;45690;-69
2022/03/09 05:41:47;;;;;;;;;64.00;49.50;;;;;7.43;54.68;101512.50;5042674;28;45336;-68
2022/03/09 05:44:13;;;;;;;;;64.75;51.50;;;;;7.67;55.09;101552.31;5045306;28;45280;-68
2022/03/09 05:46:38;;;;;;;;;64.00;50.25;;;;;7.68;54.85;101534.63;5054245;28;45215;-66
2022/03/09 05:49:05;;;;;;;;;61.00;49.00;;;;;7.83;54.98;101560.88;5046632;28;47283;-68
2022/03/09 05:51:31;;;;;;;;;58.75;46.50;;;;;7.82;54.96;101555.69;5045632;28;45197;-67
2022/03/09 05:53:57;;;;;;;;;56.50;45.25;;;;;7.82;54.92;101564.50;5048477;28;45312;-67
2022/03/09 05:56:23;;;;;;;;;56.25;46.00;;;;;7.30;55.63;101487.81;5047585;28;45277;-67
2022/03/09 05:58:49;;;;;;;;;60.25;47.50;;;;;7.72;55.23;101559.91;5047210;28;47034;-67
2022/03/09 06:01:14;;;;;;;;;55.25;46.25;;;;;7.28;55.04;101484.44;5046517;28;45339;-67
2022/03/09 06:03:39;;;;;;;;;63.50;48.00;;;;;7.92;54.94;101575.28;5044964;28;45538;-68
2022/03/09 06:06:05;;;;;;;;;61.75;48.50;;;;;7.47;54.51;101497.25;5056436;28;45252;-67
2022/03/09 06:08:31;;;;;;;;;61.50;48.75;;;;;7.97;54.70;101573.13;5045291;28;47503;-69
2022/03/09 06:10:56;;;;;;;;;57.50;46.25;;;;;8.02;54.22;101571.03;5045612;28;46358;-68
2022/03/09 06:13:22;;;;;;;;;62.25;46.50;;;;;7.97;54.75;101581.09;5045786;28;45452;-68
2022/03/09 06:15:49;;;;;;;;;65.00;50.75;;;;;7.82;55.28;101542.47;5037813;28;45432;-68
2022/03/09 06:18:15;;;;;;;;;57.00;44.75;;;;;7.65;54.78;101503.06;5053683;28;48036;-68
2022/03/09 06:20:41;;;;;;;;;59.00;46.25;;;;;8.10;53.97;101566.03;5042554;28;45936;-67
2022/03/09 06:23:06;;;;;;;;;61.50;49.75;;;;;8.04;54.32;101547.94;5041700;28;45439;-68
2022/03/09 06:25:32;;;;;;;;;60.75;46.00;;;;;8.30;53.64;101571.72;5054266;28;45500;-68
2022/03/09 06:27:58;;;;;;;;;57.00;46.50;;;;;8.22;54.36;101569.63;5046093;28;46572;-67
2022/03/09 06:30:24;;;;;;;;;60.00;48.25;;;;;6.74;55.32;101333.91;5037389;28;46035;-68
2022/03/09 06:32:49;;;;;;;;;59.75;47.75;;;;;7.87;55.58;101553.56;5046779;28;45271;-69
2022/03/09 06:35:15;;;;;;;;;55.50;44.50;;;;;8.09;55.72;101584.69;5055486;28;45337;-69
2022/03/09 06:37:41;;;;;;;;;58.50;45.75;;;;;8.12;55.64;101580.03;5048067;28;46907;-68
2022/03/09 06:40:07;;;;;;;;;56.75;45.75;;;;;8.08;55.81;101567.09;5049611;28;45493;-69
2022/03/09 06:42:33;;;;;;;;;50.50;42.00;;;;;8.04;56.61;101581.53;5046671;28;45276;-69
2022/03/09 06:44:59;;;;;;;;;55.75;45.50;;;;;8.00;56.94;101591.47;5046164;28;45177;-68
2022/03/09 06:47:25;;;;;;;;;57.50;46.00;;;;;7.79;57.24;101572.59;5040647;28;47658;-68
2022/03/09 06:49:53;;;;;;;;;55.00;45.50;;;;;7.87;57.85;101585.34;5050654;28;46349;-69
2022/03/09 06:52:19;;;;;;;;;58.50;46.25;;;;;7.86;57.59;101588.94;5045527;28;45486;-68
2022/03/09 06:54:44;;;;;;;;;54.00;44.50;;;;;7.81;57.54;101569.88;5053865;28;45672;-71
2022/03/09 06:57:18;;;;;;;;;58.25;48.25;;;;;8.05;57.47;101597.31;5037689;28;45369;-71
2022/03/09 06:59:49;;;;;;;;;51.50;43.25;;;;;8.05;57.63;101589.34;5044292;28;45597;-71
2022/03/09 07:02:19;;;;;;;;;50.75;42.25;;;;;8.02;57.74;101576.34;5045509;28;45335;-70
2022/03/09 07:04:47;;;;;;;;;53.75;43.25;;;;;8.20;57.63;101590.91;5045989;28;45362;-70
2022/03/09 07:07:13;;;;;;;;;56.50;46.50;;;;;8.22;58.01;101589.03;5046586;28;45511;-67
2022/03/09 07:09:44;;;;;;;;;50.50;40.75;;;;;8.23;57.84;101603.13;5046360;28;45431;-66
2022/03/09 07:12:19;;;;;;;;;60.25;43.00;;;;;8.21;58.01;101621.78;5052549;28;45433;-67
2022/03/09 07:14:51;;;;;;;;;50.50;42.00;;;;;8.33;57.96;101608.59;5038964;28;45438;-69
2022/03/09 07:17:17;;;;;;;;;53.00;41.75;;;;;8.45;58.20;101613.06;5049302;28;46541;-68
2022/03/09 07:19:43;;;;;;;;;53.75;43.50;;;;;8.45;57.75;101605.13;5048325;28;45366;-68
2022/03/09 07:22:08;;;;;;;;;49.50;40.50;;;;;8.68;57.60;101619.38;5046249;28;45480;-68
2022/03/09 07:24:34;;;;;;;;;47.75;41.50;;;;;8.57;57.82;101580.38;5047915;28;45782;-76
2022/03/09 07:27:00;;;;;;;;;55.25;44.25;;;;;8.84;57.15;101609.38;5038743;28;45687;-70
2022/03/09 07:29:25;;;;;;;;;56.50;45.00;;;;;8.93;56.76;101598.06;5052293;28;45306;-68
2022/03/09 07:31:53;;;;;;;;;54.00;42.00;;;;;9.26;56.03;101634.53;5048805;28;45425;-69
2022/03/09 07:34:26;;;;;;;;;55.25;44.25;;;;;9.22;55.61;101614.50;5044648;28;45707;-67
2022/03/09 07:36:53;;;;;;;;;57.75;46.25;;;;;9.28;55.19;101623.81;5045177;28;46861;-72
2022/03/09 07:39:21;;;;;;;;;55.75;42.50;;;;;9.33;55.09;101621.66;5046442;28;45441;-70
2022/03/09 07:41:46;;;;;;;;;59.25;46.50;;;;;9.42;55.10;101635.09;5044072;28;45449;-70
2022/03/09 07:44:11;;;;;;;;;57.25;45.25;;;;;9.57;55.25;101646.34;5034350;28;45662;-71
2022/03/09 07:46:37;;;;;;;;;57.00;46.00;;;;;9.66;55.22;101637.72;5043905;28;45604;-69
2022/03/09 07:49:02;;;;;;;;;51.50;43.00;;;;;9.72;54.87;101642.53;5045237;28;46300;-70
2022/03/09 07:51:28;;;;;;;;;54.00;44.00;;;;;9.77;54.67;101635.06;5042765;28;45545;-69
2022/03/09 07:53:53;;;;;;;;;50.50;41.25;;;;;9.91;54.49;101641.13;5046455;28;45460;-69
2022/03/09 07:56:19;;;;;;;;;52.00;42.50;;;;;9.89;54.94;101621.81;5045077;28;46288;-69
2022/03/09 07:58:45;;;;;;;;;47.75;39.50;;;;;9.44;54.04;101540.28;5044849;28;45383;-71
2022/03/09 08:01:10;;;;;;;;;55.50;44.50;;;;;10.18;54.70;101656.75;5056134;28;45324;-71
2022/03/09 08:03:35;;;;;;;;;52.25;41.25;;;;;10.20;55.15;101645.03;5048892;28;45431;-70
2022/03/09 08:06:01;;;;;;;;;53.25;42.50;;;;;10.27;55.21;101664.06;5055858;28;46029;-73
2022/03/09 08:08:27;;;;;;;;;52.75;43.75;;;;;10.26;55.70;101663.22;5049321;28;45554;-70
2022/03/09 08:10:53;;;;;;;;;48.75;39.75;;;;;10.32;55.00;101660.06;5049360;28;45298;-70
2022/03/09 08:13:19;;;;;;;;;52.00;41.75;;;;;10.37;55.32;101657.03;5039580;28;45550;-70
2022/03/09 08:15:44;;;;;;;;;49.75;40.25;;;;;10.36;55.15;101658.00;5039322;28;46817;-69
2022/03/09 08:18:09;;;;;;;;;51.50;42.00;;;;;10.46;54.98;101659.00;5051339;28;45298;-67
2022/03/09 08:20:35;;;;;;;;;49.25;38.50;;;;;10.10;54.75;101600.72;5032611;28;45608;-70
2022/03/09 08:23:01;;;;;;;;;49.50;39.50;;;;;9.97;54.91;101577.75;5033848;28;45212;-68
2022/03/09 08:25:26;;;;;;;;;51.25;43.00;;;;;10.48;54.83;101654.41;5033251;28;46866;-69
2022/03/09 08:27:52;;;;;;;;;45.25;36.75;;;;;10.57;54.51;101672.28;5037855;28;45487;-73
2022/03/09 08:30:17;;;;;;;;;51.00;40.50;;;;;10.59;54.79;101667.66;5048285;28;45408;-70
2022/03/09 08:32:42;;;;;;;;;42.50;35.75;;;;;10.56;54.80;101662.59;5047997;28;45433;-69
2022/03/09 08:35:08;;;;;;;;;51.75;41.50;;;;;10.56;54.97;101656.44;5053261;28;45922;-68
2022/03/09 08:37:33;;;;;;;;;47.75;40.00;;;;;10.60;54.97;101661.38;5041510;28;45326;-68
2022/03/09 08:39:59;;;;;;;;;52.75;40.00;;;;;10.76;55.03;101669.00;5046235;28;45503;-69
2022/03/09 08:42:24;;;;;;;;;46.25;38.00;;;;;10.77;55.72;101676.00;5051543;28;45473;-70
2022/03/09 08:44:51;;;;;;;;;43.00;34.33;;;;;10.71;55.80;101665.03;5051635;28;45926;-70
2022/03/09 08:47:16;;;;;;;;;44.00;35.00;;;;;10.76;55.81;101679.63;5047542;28;45422;-69
2022/03/09 08:49:42;;;;;;;;;41.75;35.25;;;;;10.72;56.70;101678.19;5042089;28;45444;-68
2022/03/09 08:52:12;;;;;;;;;36.67;33.33;;;;;10.66;56.71;101668.91;5052915;28;45418;-68
2022/03/09 08:54:40;;;;;;;;;40.00;35.33;;;;;10.69;57.04;101672.28;5037073;28;45558;-68
2022/03/09 08:57:05;;;;;;;;;39.67;34.67;;;;;10.20;56.60;101575.09;5043928;28;45478;-70
2022/03/09 08:59:31;;;;;;;;;37.33;33.00;;;;;10.31;56.79;101591.09;5044051;28;45489;-68
2022/03/09 09:01:56;;;;;;;;;44.67;37.00;;;;;10.90;56.98;101671.41;5044757;28;45363;-70
2022/03/09 09:04:22;;;;;;;;;39.00;34.00;;;;;10.84;57.42;101660.41;5035334;28;46578;-69
2022/03/09 09:06:47;;;;;;;;;37.33;33.67;;;;;9.80;57.71;101481.75;5046384;28;45486;-69
2022/03/09 09:09:14;;;;;;;;;32.00;30.00;;;;;10.99;57.44;101677.78;5042763;28;45478;-72
2022/03/09 09:11:40;;;;;;;;;32.33;30.00;;;;;10.99;57.17;101653.84;5048324;28;45506;-68
2022/03/09 09:14:06;;;;;;;;;37.00;32.33;;;;;11.07;56.91;101655.91;5045703;28;47525;-70
2022/03/09 09:16:32;;;;;;;;;35.00;33.00;;;;;11.24;56.77;101658.03;5054728;28;45373;-68
2022/03/09 09:18:57;;;;;;;;;37.00;32.00;;;;;11.36;56.46;101661.47;5057004;28;45283;-70
2022/03/09 09:21:23;;;;;;;;;38.67;32.67;;;;;11.49;56.12;101678.13;5048829;28;45422;-68
2022/03/09 09:23:48;;;;;;;;;31.00;30.00;;;;;11.46;57.08;101657.09;5045131;28;45529;-69
2022/03/09 09:26:15;;;;;;;;;33.33;30.33;;;;;11.53;56.46;101679.56;5050387;28;45394;-70
2022/03/09 09:28:43;;;;;;;;;39.67;32.33;;;;;11.47;56.58;101651.66;5058532;28;45386;-70
2022/03/09 09:31:11;;;;;;;;;32.00;31.00;;;;;11.67;56.79;101670.44;5066530;28;45473;-71
2022/03/09 09:33:37;;;;;;;;;43.00;35.00;;;;;11.78;56.36;101646.38;5039593;28;46608;-69
2022/03/09 09:36:03;;;;;;;;;32.67;30.67;;;;;12.02;56.03;101654.19;5039259;28;45470;-69
2022/03/09 09:38:29;;;;;;;;;37.33;31.67;;;;;11.94;55.38;101611.34;5042202;28;45317;-71
2022/03/09 09:40:55;;;;;;;;;32.33;30.00;;;;;12.43;55.64;101654.13;5058804;28;45272;-70
2022/03/09 09:43:23;;;;;;;;;33.67;27.67;;;;;12.53;55.28;101627.47;5058832;28;45618;-71
2022/03/09 09:45:48;;;;;;;;;33.67;28.33;;;;;12.79;54.26;101639.34;5057107;28;45479;-69
2022/03/09 09:48:13;;;;;;;;;27.33;27.33;;;;;12.87;55.19;101613.81;5041830;28;45477;-71
2022/03/09 09:50:41;;;;;;;;;27.33;26.33;;;;;13.19;54.50;101622.44;5039859;28;45546;-71
2022/03/09 09:53:10;;;;;;;;;27.33;26.00;;;;;13.55;53.62;101631.56;5045364;28;45461;-70
2022/03/09 09:55:36;;;;;;;;;24.67;23.33;;;;;13.83;53.08;101618.34;5040158;28;45519;-70
2022/03/09 09:58:02;;;;;;;;;28.00;23.00;;;;;14.23;52.71;101621.59;5045249;28;45403;-71
2022/03/09 10:00:27;;;;;;;;;27.00;24.00;;;;;14.35;52.04;101603.53;5046733;28;45466;-71
2022/03/09 10:02:53;;;;;;;;;22.00;20.67;;;;;14.69;51.66;101627.91;5035436;28;46359;-70
2022/03/09 10:05:19;;;;;;;;;24.67;24.00;;;;;14.89;51.22;101618.75;5046210;28;45758;-69
2022/03/09 10:08:03;;;;;;;;;14.00;13.00;;;;;14.97;50.71;101633.22;5048958;28;45565;-71
2022/03/09 10:10:51;;;;;;;;;17.67;17.00;;;;;15.01;50.89;101613.16;5058276;28;45305;-69
2022/03/09 10:13:35;;;;;;;;;18.67;17.00;;;;;15.03;50.22;101603.19;5024871;28;46116;-70
2022/03/09 10:16:20;;;;;;;;;15.67;15.67;;;;;15.06;50.01;101626.97;5035919;28;45386;-70
2022/03/09 10:18:56;;;;;;;;;16.67;16.67;;;;;14.98;50.09;101629.53;5046328;28;45575;-71
2022/03/09 10:21:28;;;;;;;;;22.33;16.67;;;;;14.64;50.09;101592.72;5036594;28;45418;-69
2022/03/09 10:23:55;;;;;;;;;27.67;24.67;;;;;14.78;50.40;101632.34;5035011;28;47027;-69
2022/03/09 10:26:49;;;;;;;;;24.00;22.33;;;;;14.71;50.50;101630.44;5048148;28;45403;-70
2022/03/09 10:29:16;;;;;;;;;28.33;22.00;;;;;14.60;50.55;101602.00;5032534;28;45638;-71
2022/03/09 10:31:47;;;;;;;;;23.67;22.67;;;;;14.68;50.28;101618.19;5038781;28;45587;-71
2022/03/09 10:34:35;;;;;;;;;26.00;23.67;;;;;14.62;50.76;101616.13;5064039;28;46605;-70
2022/03/09 10:37:06;;;;;;;;;25.67;23.00;;;;;14.40;50.77;101616.44;5035338;28;45590;-69
2022/03/09 10:39:40;;;;;;;;;20.67;19.00;;;;;14.34;51.03;101617.88;5040580;28;45478;-71
2022/03/09 10:42:25;;;;;;;;;23.00;22.00;;;;;14.11;51.75;101603.19;5036997;28;45486;-70
2022/03/09 10:44:52;;;;;;;;;23.00;19.33;;;;;14.05;51.83;101618.00;5037991;28;47279;-69
2022/03/09 10:47:36;;;;;;;;;19.67;19.33;;;;;13.99;51.86;101613.22;5033958;28;46266;-70
2022/03/09 10:50:24;;;;;;;;;14.67;14.67;;;;;13.99;51.75;101607.88;5036980;28;45454;-71
2022/03/09 10:52:51;;;;;;;;;15.33;14.33;;;;;13.82;52.37;101601.47;5036749;28;45210;-70
2022/03/09 10:55:21;;;;;;;;;14.00;14.00;;;;;13.72;52.71;101600.63;5046065;28;46503;-71
2022/03/09 10:57:47;;;;;;;;;15.33;14.67;;;;;13.55;52.95;101596.84;5040516;28;45850;-70
2022/03/09 11:00:12;;;;;;;;;13.00;13.00;;;;;13.64;52.66;101612.03;5037050;28;45395;-70
2022/03/09 11:02:49;;;;;;;;;18.67;14.67;;;;;13.57;52.88;101618.91;5037056;28;45605;-70
2022/03/09 11:05:17;;;;;;;;;17.00;16.00;;;;;12.83;53.13;101495.81;5044812;28;47447;-71
2022/03/09 11:07:42;;;;;;;;;17.67;17.67;;;;;13.56;53.25;101613.72;5042841;28;45710;-72
2022/03/09 11:10:12;;;;;;;;;20.00;19.00;;;;;13.48;53.41;101601.09;5044106;28;45537;-70
2022/03/09 11:12:38;;;;;;;;;14.00;14.00;;;;;13.63;53.14;101613.03;5035677;28;45395;-70